Time;durP1;ratioP1;P1;durP2;ratioP2;P2;SDS_P1;SDS_P2;PMS_P1;PMS_P2;Temp;Humidity;BMP_temperature;BMP_pressure;BME280_temperature;BME280_humidity;BME280_pressure;Samples;Min_cycle;Max_cycle;Signal;HPM_P1;HPM_P2
2022/01/20 00:00:14;;;;;;;39.30;35.38;;;0.80;69.80;;;;;;5015698;28;20022;-85
2022/01/20 00:02:37;;;;;;;34.90;31.23;;;0.80;69.80;;;;;;5014995;28;20033;-84
2022/01/20 00:26:47;;;;;;;37.13;33.00;;;0.80;69.90;;;;;;4987189;28;20042;-85
2022/01/20 00:29:21;;;;;;;38.35;34.63;;;0.80;70.00;;;;;;5018326;28;20026;-83
2022/01/20 00:32:03;;;;;;;43.28;37.92;;;0.80;70.10;;;;;;5018123;28;20022;-80
2022/01/20 00:35:04;;;;;;;45.60;35.83;;;0.80;70.20;;;;;;5018380;28;20048;-81
2022/01/20 00:37:19;;;;;;;39.03;33.58;;;0.80;70.20;;;;;;5017673;28;20453;-83
2022/01/20 00:39:45;;;;;;;43.42;33.55;;;0.80;70.30;;;;;;5016382;28;20018;-82
2022/01/20 00:42:11;;;;;;;38.30;34.35;;;0.80;70.30;;;;;;5017918;28;20045;-81
2022/01/20 00:44:37;;;;;;;45.13;40.00;;;0.70;70.30;;;;;;5018077;28;20017;-83
2022/01/20 00:47:03;;;;;;;48.15;40.03;;;0.80;70.40;;;;;;5017272;28;20033;-82
2022/01/20 00:49:29;;;;;;;60.17;41.78;;;0.70;70.50;;;;;;5017637;28;20075;-81
2022/01/20 00:51:54;;;;;;;59.80;46.17;;;0.80;70.60;;;;;;5015999;28;20407;-82
2022/01/20 00:54:20;;;;;;;46.55;41.47;;;0.80;70.60;;;;;;5017228;28;20080;-81
2022/01/20 00:56:47;;;;;;;59.55;41.45;;;0.80;70.60;;;;;;5017504;28;20105;-81
2022/01/20 00:59:13;;;;;;;47.95;38.97;;;0.80;70.60;;;;;;5016086;28;20018;-81
2022/01/20 01:01:38;;;;;;;50.88;39.45;;;0.80;70.60;;;;;;5017231;28;20029;-83
2022/01/20 01:04:04;;;;;;;39.30;35.20;;;0.80;70.60;;;;;;5015852;28;20109;-81
2022/01/20 01:09:02;;;;;;;37.83;33.80;;;0.80;70.70;;;;;;5016930;28;20536;-81
2022/01/20 01:11:28;;;;;;;42.38;35.03;;;0.80;70.80;;;;;;5016711;28;20026;-82
2022/01/20 01:13:55;;;;;;;38.67;34.10;;;0.80;70.80;;;;;;5016771;28;20433;-81
2022/01/20 01:16:25;;;;;;;44.25;33.42;;;0.90;70.80;;;;;;5017019;28;20022;-81
2022/01/20 01:21:46;;;;;;;38.33;34.15;;;0.90;70.80;;;;;;5016629;28;20032;-80
2022/01/20 01:24:12;;;;;;;37.83;34.10;;;0.90;70.80;;;;;;5016757;28;20018;-82
2022/01/20 01:26:37;;;;;;;37.00;33.38;;;0.90;70.70;;;;;;5016697;28;20032;-82
2022/01/20 01:29:16;;;;;;;37.70;34.25;;;0.90;70.80;;;;;;5017280;28;20092;-82
2022/01/20 01:31:41;;;;;;;48.20;40.03;;;1.00;70.90;;;;;;5017057;28;20072;-82
2022/01/20 01:34:13;;;;;;;42.95;37.13;;;1.00;70.80;;;;;;5016742;28;20369;-82
2022/01/20 01:39:23;;;;;;;38.47;34.63;;;0.90;70.80;;;;;;5016602;28;20033;-83
2022/01/20 01:41:49;;;;;;;42.28;36.05;;;0.90;70.80;;;;;;5016826;28;20022;-83
2022/01/20 01:44:22;;;;;;;39.10;33.88;;;1.00;71.00;;;;;;5016880;28;20021;-84
2022/01/20 01:46:48;;;;;;;37.50;33.83;;;0.90;71.00;;;;;;5015267;28;20025;-83
2022/01/20 01:49:14;;;;;;;39.00;35.22;;;0.90;71.00;;;;;;5015825;28;20022;-84
2022/01/20 01:51:40;;;;;;;37.60;33.75;;;0.90;71.00;;;;;;5016509;28;20018;-81
2022/01/20 01:54:05;;;;;;;38.90;35.08;;;0.90;71.10;;;;;;5015302;28;20033;-85
2022/01/20 01:56:31;;;;;;;37.90;33.83;;;0.90;71.10;;;;;;5015745;28;20088;-81
2022/01/20 01:58:57;;;;;;;34.38;30.95;;;0.90;71.10;;;;;;5016739;28;20018;-84
2022/01/20 02:01:25;;;;;;;36.47;33.10;;;0.90;71.20;;;;;;5015927;28;20088;-84
2022/01/20 02:03:59;;;;;;;33.03;29.83;;;0.90;71.10;;;;;;5016361;28;20026;-82
2022/01/20 02:19:56;;;;;;;37.05;33.50;;;1.10;71.20;;;;;;5015950;28;20161;-83
2022/01/20 02:22:22;;;;;;;37.20;33.83;;;1.10;71.20;;;;;;5016222;28;20018;-83
2022/01/20 02:24:48;;;;;;;42.88;33.17;;;1.20;71.20;;;;;;5016751;28;20076;-83
2022/01/20 02:27:13;;;;;;;37.55;33.70;;;1.20;71.30;;;;;;5019540;28;20029;-84
2022/01/20 02:29:40;;;;;;;36.38;32.88;;;1.20;71.20;;;;;;5015847;28;20484;-82
2022/01/20 02:32:07;;;;;;;40.88;36.47;;;1.20;71.20;;;;;;5015850;28;20338;-81
2022/01/20 02:34:33;;;;;;;40.33;36.50;;;1.20;71.20;;;;;;5015864;28;20033;-78
2022/01/20 02:37:02;;;;;;;40.50;33.50;;;1.20;71.20;;;;;;5014254;28;20080;-83
2022/01/20 02:47:16;;;;;;;35.35;31.58;;;1.30;71.10;;;;;;5014608;28;20045;-80
2022/01/20 02:49:42;;;;;;;34.85;31.63;;;1.30;71.10;;;;;;5014472;28;20060;-82
2022/01/20 02:52:08;;;;;;;37.08;33.20;;;1.20;71.20;;;;;;5015254;28;20025;-83
2022/01/20 02:54:34;;;;;;;32.97;29.55;;;1.30;71.30;;;;;;5015919;28;20022;-80
2022/01/20 02:57:00;;;;;;;35.25;30.75;;;1.30;71.30;;;;;;5016052;28;20346;-81
2022/01/20 02:59:27;;;;;;;34.20;28.95;;;1.30;71.30;;;;;;5015885;28;20345;-80
2022/01/20 03:01:53;;;;;;;32.50;29.48;;;1.30;71.20;;;;;;5015381;28;20017;-82
2022/01/20 03:04:23;;;;;;;34.42;31.13;;;1.30;71.10;;;;;;5016338;28;20360;-81
2022/01/20 03:06:49;;;;;;;32.22;29.27;;;1.30;71.20;;;;;;5015259;28;20034;-80
2022/01/20 03:09:14;;;;;;;31.40;28.52;;;1.30;71.20;;;;;;5015325;28;20093;-85
2022/01/20 03:11:40;;;;;;;36.03;31.48;;;1.20;71.20;;;;;;5015767;28;20034;-81
2022/01/20 03:14:06;;;;;;;44.85;35.65;;;1.20;71.10;;;;;;5016196;28;20334;-79
2022/01/20 03:16:31;;;;;;;41.35;33.78;;;1.20;71.20;;;;;;5016106;28;20424;-83
2022/01/20 03:18:57;;;;;;;39.58;34.85;;;1.20;71.10;;;;;;5015615;28;20030;-79
2022/01/20 03:21:23;;;;;;;38.33;34.70;;;1.20;71.10;;;;;;5015099;28;20014;-80
2022/01/20 03:23:48;;;;;;;61.95;43.88;;;1.10;71.00;;;;;;5015030;28;20018;-81
2022/01/20 03:26:14;;;;;;;47.50;42.05;;;1.00;71.00;;;;;;5013946;28;20030;-79
2022/01/20 03:28:40;;;;;;;47.67;33.28;;;1.00;71.10;;;;;;5014902;28;20352;-81
2022/01/20 03:31:05;;;;;;;51.10;35.53;;;1.00;71.10;;;;;;5013681;28;20372;-80
2022/01/20 03:33:31;;;;;;;61.17;42.15;;;1.00;71.20;;;;;;5014952;28;20052;-81
2022/01/20 03:35:57;;;;;;;41.65;35.90;;;0.90;71.20;;;;;;5014390;28;20058;-80
2022/01/20 03:38:22;;;;;;;44.15;35.95;;;0.90;71.20;;;;;;5014984;28;20022;-80
2022/01/20 03:40:49;;;;;;;40.83;34.95;;;0.90;71.30;;;;;;5014426;28;20415;-80
2022/01/20 03:43:15;;;;;;;37.45;33.35;;;0.90;71.40;;;;;;5014465;28;20360;-81
2022/01/20 03:45:42;;;;;;;48.15;36.92;;;0.80;71.30;;;;;;5014585;28;20093;-80
2022/01/20 03:48:10;;;;;;;40.42;35.78;;;0.90;71.40;;;;;;5015354;28;20385;-80
2022/01/20 03:53:22;;;;;;;32.38;29.30;;;1.00;71.50;;;;;;5014685;28;20439;-79
2022/01/20 03:55:48;;;;;;;33.60;30.20;;;1.00;71.40;;;;;;5014380;28;20420;-78
2022/01/20 03:58:14;;;;;;;31.25;28.27;;;1.00;71.40;;;;;;5015039;28;20064;-77
2022/01/20 04:00:39;;;;;;;34.47;31.10;;;1.00;71.40;;;;;;5020053;28;20022;-79
2022/01/20 04:03:05;;;;;;;31.63;28.67;;;1.00;71.40;;;;;;5016410;28;20018;-78
2022/01/20 04:05:31;;;;;;;29.10;26.33;;;1.00;71.40;;;;;;5017858;28;20026;-77
2022/01/20 04:07:56;;;;;;;37.83;32.25;;;0.90;71.30;;;;;;5018383;28;20036;-78
2022/01/20 04:10:22;;;;;;;39.33;34.72;;;0.90;71.30;;;;;;5017220;28;20451;-82
2022/01/20 04:12:48;;;;;;;47.25;33.13;;;0.90;71.20;;;;;;5016774;28;20060;-77
2022/01/20 04:15:16;;;;;;;38.00;29.95;;;0.80;71.10;;;;;;5017924;28;20027;-76
2022/01/20 04:17:44;;;;;;;32.78;29.35;;;0.80;71.20;;;;;;5017667;28;20026;-76
2022/01/20 04:20:10;;;;;;;31.30;27.42;;;0.80;71.20;;;;;;5017857;28;20028;-76
2022/01/20 04:22:37;;;;;;;32.58;29.10;;;0.80;71.20;;;;;;5016064;28;20164;-79
2022/01/20 04:25:04;;;;;;;34.22;30.75;;;0.80;71.30;;;;;;5017080;28;20053;-78
2022/01/20 04:27:30;;;;;;;38.22;34.60;;;0.80;71.30;;;;;;5017389;28;20034;-78
2022/01/20 04:29:55;;;;;;;37.65;30.58;;;0.80;71.30;;;;;;5017378;28;20472;-76
2022/01/20 04:32:21;;;;;;;63.47;46.40;;;0.80;71.20;;;;;;5017722;28;20036;-80
2022/01/20 04:34:47;;;;;;;52.92;42.78;;;0.70;71.10;;;;;;5017383;28;20030;-79
2022/01/20 04:37:14;;;;;;;36.20;32.70;;;0.70;71.10;;;;;;5017874;28;20119;-79
2022/01/20 04:39:45;;;;;;;37.10;29.60;;;0.70;71.20;;;;;;5017197;28;20058;-76
2022/01/20 04:42:11;;;;;;;63.90;40.03;;;0.60;71.20;;;;;;5015967;28;20108;-78
2022/01/20 04:44:52;;;;;;;40.85;36.72;;;0.60;71.30;;;;;;5017130;28;20049;-78
2022/01/20 04:58:03;;;;;;;42.10;32.67;;;0.60;71.40;;;;;;5016909;28;20551;-77
2022/01/20 05:00:29;;;;;;;35.38;31.13;;;0.60;71.40;;;;;;5016410;28;20099;-75
2022/01/20 05:02:55;;;;;;;52.40;39.30;;;0.60;71.30;;;;;;5016508;28;20025;-77
2022/01/20 05:05:20;;;;;;;54.13;39.22;;;0.60;71.30;;;;;;5015189;28;20113;-79
2022/01/20 05:07:47;;;;;;;57.70;44.78;;;0.70;71.50;;;;;;5016326;28;20120;-77
2022/01/20 05:10:13;;;;;;;47.28;34.67;;;0.70;71.50;;;;;;5015725;28;20049;-76
2022/01/20 05:13:06;;;;;;;37.25;31.67;;;0.60;71.40;;;;;;5016458;28;20022;-81
2022/01/20 05:15:26;;;;;;;42.47;33.50;;;0.60;71.30;;;;;;5016626;28;20457;-77
2022/01/20 05:17:53;;;;;;;35.03;31.63;;;0.60;71.40;;;;;;5016530;28;20278;-77
2022/01/20 05:20:19;;;;;;;40.08;32.05;;;0.60;71.40;;;;;;5016284;28;20045;-79
2022/01/20 05:22:45;;;;;;;36.30;32.50;;;0.60;71.50;;;;;;5016048;28;20022;-73
2022/01/20 05:25:10;;;;;;;36.58;30.63;;;0.70;71.50;;;;;;5016063;28;20014;-73
2022/01/20 05:27:36;;;;;;;39.08;32.83;;;0.70;71.60;;;;;;5016153;28;20034;-75
2022/01/20 05:30:02;;;;;;;38.20;34.20;;;0.70;71.50;;;;;;5015719;28;20028;-76
2022/01/20 05:32:28;;;;;;;51.38;43.60;;;0.70;71.40;;;;;;5013676;28;20111;-74
2022/01/20 05:34:54;;;;;;;61.17;41.95;;;0.70;71.30;;;;;;5016250;28;20050;-79
2022/01/20 05:37:20;;;;;;;68.50;45.85;;;0.70;71.40;;;;;;5016591;28;20033;-77
2022/01/20 05:39:45;;;;;;;54.17;42.75;;;0.70;71.40;;;;;;5016151;28;20018;-80
2022/01/20 05:42:11;;;;;;;50.00;39.45;;;0.60;71.30;;;;;;5016145;28;20037;-73
2022/01/20 05:44:37;;;;;;;47.90;34.53;;;0.70;71.60;;;;;;5015874;28;20033;-67
2022/01/20 05:47:10;;;;;;;39.63;31.17;;;0.70;71.50;;;;;;5015225;28;20033;-67
2022/01/20 05:49:36;;;;;;;37.60;33.63;;;0.70;71.50;;;;;;5015327;28;20194;-67
2022/01/20 05:52:03;;;;;;;32.35;29.25;;;0.60;71.40;;;;;;5015151;28;20053;-72
2022/01/20 05:54:29;;;;;;;39.60;32.78;;;0.70;71.60;;;;;;5016113;28;20022;-69
2022/01/20 05:56:55;;;;;;;46.80;35.38;;;0.70;71.60;;;;;;5015367;28;20022;-68
2022/01/20 05:59:21;;;;;;;51.22;39.72;;;0.70;71.50;;;;;;5015390;28;20018;-70
2022/01/20 06:01:54;;;;;;;39.78;32.80;;;0.70;71.50;;;;;;5015219;28;20338;-71
2022/01/20 06:04:19;;;;;;;38.60;33.35;;;0.70;71.60;;;;;;5015045;28;20022;-68
2022/01/20 06:06:45;;;;;;;39.67;35.63;;;0.70;71.60;;;;;;5014878;28;20037;-68
2022/01/20 06:09:11;;;;;;;35.65;32.10;;;0.70;71.50;;;;;;5015110;28;20501;-70
2022/01/20 06:11:37;;;;;;;36.50;32.72;;;0.70;71.60;;;;;;5014755;28;20028;-69
2022/01/20 06:14:04;;;;;;;38.28;34.42;;;0.60;71.70;;;;;;5030056;28;20029;-69
2022/01/20 06:16:30;;;;;;;35.97;32.15;;;0.70;71.80;;;;;;5015224;28;20018;-70
2022/01/20 06:18:56;;;;;;;38.83;34.92;;;0.80;71.80;;;;;;5014867;28;20036;-70
2022/01/20 06:21:22;;;;;;;36.70;33.15;;;0.80;71.80;;;;;;5014342;28;20097;-70
2022/01/20 06:23:48;;;;;;;35.80;32.17;;;0.80;71.60;;;;;;5014587;28;20449;-71
2022/01/20 06:26:14;;;;;;;31.80;28.75;;;0.80;71.60;;;;;;5014898;28;20361;-72
2022/01/20 06:28:42;;;;;;;37.83;34.00;;;0.80;71.60;;;;;;5014008;28;20022;-71
2022/01/20 06:31:09;;;;;;;34.75;31.65;;;0.80;71.60;;;;;;5014964;28;20040;-69
2022/01/20 06:33:35;;;;;;;34.33;30.92;;;0.80;71.60;;;;;;5014657;28;20018;-70
2022/01/20 06:36:00;;;;;;;32.55;29.30;;;0.80;71.60;;;;;;5014610;28;20050;-71
2022/01/20 06:38:27;;;;;;;33.03;29.42;;;0.80;71.80;;;;;;5015079;28;20044;-68
2022/01/20 06:40:52;;;;;;;33.63;30.30;;;0.80;71.70;;;;;;5013386;28;20147;-70
2022/01/20 06:43:18;;;;;;;34.45;31.17;;;0.90;71.80;;;;;;5015007;28;20080;-67
2022/01/20 06:45:44;;;;;;;32.13;29.10;;;0.90;71.80;;;;;;5014606;28;20022;-69
2022/01/20 06:48:10;;;;;;;33.45;29.35;;;1.00;71.90;;;;;;5014380;28;20021;-68
2022/01/20 06:50:36;;;;;;;34.88;30.42;;;1.00;71.90;;;;;;5014578;28;20080;-66
2022/01/20 06:53:02;;;;;;;34.45;31.30;;;1.10;71.90;;;;;;5013694;28;20025;-66
2022/01/20 06:58:49;;;;;;;38.05;34.35;;;1.30;72.10;;;;;;5014430;28;20369;-66
2022/01/20 07:01:16;;;;;;;41.80;37.25;;;1.50;71.90;;;;;;5014378;28;20021;-67
2022/01/20 07:03:42;;;;;;;46.60;40.80;;;1.60;71.90;;;;;;5014280;28;20028;-67
2022/01/20 07:06:07;;;;;;;41.92;37.45;;;1.60;71.60;;;;;;5013765;28;20034;-69
2022/01/20 07:08:33;;;;;;;37.83;34.25;;;1.70;71.70;;;;;;5014460;28;20021;-67
2022/01/20 07:10:59;;;;;;;35.13;31.42;;;1.70;71.60;;;;;;5012969;28;20064;-68
2022/01/20 07:13:24;;;;;;;38.85;34.72;;;1.70;71.70;;;;;;5012942;28;20467;-67
2022/01/20 07:15:50;;;;;;;38.17;34.08;;;1.80;71.60;;;;;;5014511;28;20091;-67
2022/01/20 07:18:16;;;;;;;39.17;32.70;;;1.90;71.60;;;;;;5014668;28;20112;-67
2022/01/20 07:20:42;;;;;;;39.78;34.15;;;1.90;71.50;;;;;;5017922;28;20073;-65
2022/01/20 07:23:07;;;;;;;36.53;32.78;;;2.00;71.50;;;;;;5014183;28;20034;-65
2022/01/20 07:25:33;;;;;;;33.95;30.50;;;2.00;71.40;;;;;;5015040;28;20022;-66
2022/01/20 07:27:59;;;;;;;37.45;31.70;;;2.00;71.20;;;;;;5014631;28;20026;-68
2022/01/20 07:33:46;;;;;;;37.78;34.03;;;1.90;70.90;;;;;;5013274;28;20111;-67
2022/01/20 07:36:12;;;;;;;39.00;35.55;;;1.80;70.60;;;;;;5012459;28;20089;-69
2022/01/20 07:38:38;;;;;;;38.58;34.60;;;1.80;70.80;;;;;;5013754;28;20049;-69
2022/01/20 07:41:03;;;;;;;38.40;33.78;;;1.80;70.90;;;;;;5013075;28;20032;-68
2022/01/20 07:43:29;;;;;;;34.58;31.48;;;1.80;70.90;;;;;;5012559;28;20069;-67
2022/01/20 07:45:55;;;;;;;38.08;34.55;;;1.80;71.00;;;;;;5012631;28;20026;-67
2022/01/20 07:48:21;;;;;;;38.58;34.60;;;1.90;71.10;;;;;;5013121;28;20042;-67
2022/01/20 07:50:47;;;;;;;33.20;29.35;;;2.00;71.00;;;;;;5012523;28;20483;-71
2022/01/20 19:03:32;;;;;;;101.20;58.70;;;0.60;72.50;;;;;;5071051;28;20380;-62
2022/01/20 19:05:58;;;;;;;107.88;72.95;;;0.60;74.30;;;;;;5070730;28;20028;-61
2022/01/20 19:08:23;;;;;;;105.03;66.25;;;0.80;75.50;;;;;;5071193;28;20530;-62
2022/01/20 19:10:50;;;;;;;88.72;59.30;;;1.00;76.00;;;;;;5069845;28;20028;-62
2022/01/20 19:13:16;;;;;;;49.22;40.30;;;1.20;76.10;;;;;;5069490;28;20103;-63
2022/01/20 19:15:42;;;;;;;36.55;32.25;;;1.40;76.00;;;;;;5070860;28;20075;-63
2022/01/20 19:18:07;;;;;;;39.03;35.58;;;1.50;75.70;;;;;;5070898;28;20074;-59
2022/01/20 19:20:33;;;;;;;37.22;33.22;;;1.70;75.60;;;;;;5070659;28;20027;-58
2022/01/20 19:22:59;;;;;;;35.33;31.85;;;1.80;75.40;;;;;;5062434;28;20509;-58
2022/01/20 19:25:25;;;;;;;35.75;30.48;;;1.90;75.10;;;;;;5070482;28;20082;-59
2022/01/20 19:27:51;;;;;;;33.70;30.23;;;2.00;74.90;;;;;;5069496;28;20028;-60
2022/01/20 19:30:17;;;;;;;30.23;27.50;;;2.10;74.70;;;;;;5069076;28;20028;-60
2022/01/20 19:32:43;;;;;;;30.80;27.95;;;2.20;74.50;;;;;;5071002;28;20028;-60
2022/01/20 19:38:31;;;;;;;31.38;28.42;;;2.30;74.10;;;;;;5070414;28;20031;-59
2022/01/20 19:40:57;;;;;;;36.13;33.35;;;2.30;73.80;;;;;;5070571;28;20020;-60
2022/01/20 19:43:22;;;;;;;34.78;31.27;;;2.30;73.70;;;;;;5070367;28;20025;-60
2022/01/20 19:45:49;;;;;;;36.15;32.83;;;2.30;73.60;;;;;;5077474;28;20024;-59
2022/01/20 19:48:14;;;;;;;39.83;36.53;;;2.30;73.50;;;;;;5077846;28;20036;-59
2022/01/20 19:50:41;;;;;;;37.28;33.90;;;2.30;73.60;;;;;;5050153;28;20467;-61
2022/01/20 19:53:07;;;;;;;43.10;38.67;;;2.30;73.80;;;;;;5051650;28;20422;-59
2022/01/20 19:55:33;;;;;;;38.28;34.38;;;2.30;73.70;;;;;;5070162;28;20032;-59
2022/01/20 19:57:59;;;;;;;37.45;33.80;;;2.30;73.60;;;;;;5051997;28;20025;-60
2022/01/20 20:00:27;;;;;;;40.70;36.65;;;2.30;73.70;;;;;;5050401;28;20032;-60
2022/01/20 20:02:54;;;;;;;39.35;35.28;;;2.30;73.90;;;;;;5050088;28;20076;-59
2022/01/20 20:05:20;;;;;;;46.15;40.88;;;2.20;74.00;;;;;;5049850;28;20032;-61
2022/01/20 20:07:47;;;;;;;43.47;39.50;;;2.20;74.20;;;;;;5052430;28;20025;-61
2022/01/20 20:10:14;;;;;;;38.03;34.03;;;2.10;74.30;;;;;;5069957;28;20028;-59
2022/01/20 20:12:40;;;;;;;38.10;34.42;;;2.10;74.50;;;;;;5069370;28;20121;-60
2022/01/20 20:15:07;;;;;;;42.03;37.78;;;2.20;74.80;;;;;;5055640;28;20063;-60
2022/01/20 20:17:33;;;;;;;36.67;33.55;;;2.20;75.40;;;;;;5056858;28;20040;-61
2022/01/20 20:19:59;;;;;;;42.60;37.63;;;2.30;74.90;;;;;;5056986;28;20017;-59
2022/01/20 20:22:24;;;;;;;41.78;37.38;;;2.20;74.80;;;;;;5056369;28;20033;-59
2022/01/20 20:24:50;;;;;;;43.40;37.95;;;2.20;75.00;;;;;;5056186;28;20482;-60
2022/01/20 20:27:16;;;;;;;59.78;43.83;;;2.20;75.20;;;;;;5037154;28;20029;-59
2022/01/20 20:29:42;;;;;;;59.90;44.83;;;2.10;75.20;;;;;;5036154;28;20079;-60
2022/01/20 20:32:10;;;;;;;64.55;44.15;;;2.10;75.40;;;;;;5036419;28;20075;-60
2022/01/20 20:34:37;;;;;;;62.65;48.00;;;2.10;75.60;;;;;;5036338;28;20399;-60
2022/01/20 20:37:05;;;;;;;57.72;45.03;;;2.10;75.80;;;;;;5036860;28;20048;-59
2022/01/20 20:39:31;;;;;;;73.60;43.00;;;2.10;76.00;;;;;;5036233;28;20100;-60
2022/01/20 20:41:57;;;;;;;72.45;49.50;;;2.10;76.20;;;;;;5035258;28;20371;-61
2022/01/20 20:44:24;;;;;;;89.22;55.85;;;2.00;76.30;;;;;;5036096;28;20112;-60
2022/01/20 20:46:56;;;;;;;91.10;51.92;;;2.10;76.50;;;;;;5034911;28;20026;-60
2022/01/20 20:49:27;;;;;;;95.57;55.40;;;2.00;76.60;;;;;;5036737;28;20025;-60
2022/01/20 20:51:53;;;;;;;98.32;56.83;;;2.10;76.70;;;;;;5036050;28;20029;-59
2022/01/20 20:54:22;;;;;;;79.40;55.70;;;2.00;76.80;;;;;;5036278;28;20017;-61
2022/01/20 20:56:48;;;;;;;83.65;52.53;;;2.00;77.00;;;;;;5036220;28;20068;-60
2022/01/20 21:02:35;;;;;;;60.40;47.85;;;2.10;77.50;;;;;;5032621;28;20133;-71
2022/01/20 21:05:02;;;;;;;55.17;46.20;;;2.20;77.10;;;;;;5035848;28;20049;-69
2022/01/20 21:07:28;;;;;;;53.42;43.72;;;2.20;77.90;;;;;;5035649;28;20044;-69
2022/01/20 21:09:56;;;;;;;53.67;47.50;;;2.20;77.40;;;;;;5035693;28;20437;-70
2022/01/20 21:12:22;;;;;;;55.80;42.92;;;2.20;77.50;;;;;;5035740;28;20021;-70
2022/01/20 21:14:49;;;;;;;60.25;44.88;;;2.20;77.60;;;;;;5035694;28;20031;-70
2022/01/20 21:17:15;;;;;;;58.67;40.55;;;2.20;77.70;;;;;;5035550;28;20049;-70
2022/01/20 21:19:43;;;;;;;58.10;44.20;;;2.20;78.30;;;;;;5035838;28;20021;-69
2022/01/20 21:22:10;;;;;;;61.60;42.72;;;2.30;77.80;;;;;;5035677;28;20358;-71
2022/01/20 21:24:37;;;;;;;73.85;46.83;;;2.30;78.40;;;;;;5035242;28;20030;-69
2022/01/20 21:27:04;;;;;;;70.45;46.08;;;2.30;77.90;;;;;;5034509;28;20021;-69
2022/01/20 21:29:29;;;;;;;60.88;48.95;;;2.30;77.90;;;;;;5035387;28;20104;-69
2022/01/20 21:31:55;;;;;;;72.60;50.33;;;2.30;77.90;;;;;;5033985;28;20116;-68
2022/01/20 21:34:21;;;;;;;80.65;46.53;;;2.30;77.80;;;;;;5034922;28;20032;-69
2022/01/20 21:36:48;;;;;;;77.75;46.72;;;2.30;77.80;;;;;;5035193;28;20025;-70
2022/01/20 21:39:14;;;;;;;68.40;51.45;;;2.30;77.90;;;;;;5034197;28;20025;-69
2022/01/20 21:41:41;;;;;;;68.03;47.55;;;2.20;77.90;;;;;;5035038;28;20100;-69
2022/01/20 21:44:08;;;;;;;81.68;52.88;;;2.20;78.00;;;;;;5034850;28;20022;-69
2022/01/20 21:46:34;;;;;;;83.75;52.60;;;2.20;78.10;;;;;;5035321;28;20021;-69
2022/01/20 21:49:00;;;;;;;82.25;49.70;;;2.10;78.20;;;;;;5035180;28;20017;-69
2022/01/20 21:51:25;;;;;;;91.60;53.65;;;2.10;78.30;;;;;;5034915;28;20088;-68
2022/01/20 21:53:51;;;;;;;81.85;52.13;;;2.10;78.40;;;;;;5036912;28;20022;-69
2022/01/20 21:56:19;;;;;;;90.50;56.92;;;2.10;78.50;;;;;;5039681;28;20030;-68
2022/01/20 21:58:46;;;;;;;95.38;61.00;;;2.00;78.50;;;;;;5034876;28;20030;-68
2022/01/20 22:01:12;;;;;;;93.85;54.75;;;2.10;78.80;;;;;;5034586;28;20028;-68
2022/01/20 22:03:38;;;;;;;101.05;56.83;;;2.00;78.80;;;;;;5035320;28;20128;-68
2022/01/20 22:06:04;;;;;;;87.03;58.28;;;2.00;79.00;;;;;;5034601;28;20056;-68
2022/01/20 22:08:34;;;;;;;106.25;58.03;;;2.00;79.10;;;;;;5034571;28;20021;-69
2022/01/20 22:11:00;;;;;;;116.70;62.00;;;2.00;79.20;;;;;;5034811;28;20341;-69
2022/01/20 22:16:48;;;;;;;97.68;58.38;;;2.00;79.60;;;;;;5034257;28;20128;-69
2022/01/20 22:19:13;;;;;;;99.28;57.33;;;2.00;79.20;;;;;;5034790;28;20029;-68
2022/01/20 22:21:40;;;;;;;102.45;59.53;;;2.00;79.40;;;;;;5034559;28;20037;-70
2022/01/20 22:24:06;;;;;;;76.47;54.55;;;2.00;79.60;;;;;;5034316;28;20017;-70
2022/01/20 22:26:32;;;;;;;108.53;66.15;;;2.10;79.80;;;;;;5033961;28;20067;-70
2022/01/20 22:28:59;;;;;;;100.75;61.55;;;2.10;79.70;;;;;;5034532;28;20033;-71
2022/01/20 22:31:24;;;;;;;98.97;60.55;;;2.10;79.80;;;;;;5034227;28;20017;-71
2022/01/20 22:33:50;;;;;;;94.85;59.58;;;2.10;79.90;;;;;;5032986;28;20021;-71
2022/01/20 22:36:17;;;;;;;96.38;63.25;;;2.20;80.00;;;;;;5033942;28;20029;-71
2022/01/20 22:38:43;;;;;;;97.78;57.33;;;2.20;80.00;;;;;;5034138;28;20064;-70
2022/01/20 22:41:08;;;;;;;74.13;56.75;;;2.30;80.00;;;;;;5033628;28;20044;-71
2022/01/20 22:43:35;;;;;;;89.15;55.25;;;2.30;79.90;;;;;;5033947;28;20119;-71
2022/01/20 22:46:02;;;;;;;68.60;48.97;;;2.30;80.00;;;;;;5034604;28;20103;-71
2022/01/20 22:48:31;;;;;;;46.72;40.63;;;2.40;80.00;;;;;;5034572;28;20052;-70
2022/01/20 22:50:58;;;;;;;65.80;46.20;;;2.40;80.00;;;;;;5032685;28;20025;-71
2022/01/20 22:53:25;;;;;;;67.88;47.33;;;2.40;79.80;;;;;;5034236;28;20051;-71
2022/01/20 22:55:51;;;;;;;69.15;51.10;;;2.50;79.80;;;;;;5033941;28;20026;-71
2022/01/20 22:58:17;;;;;;;82.80;52.88;;;2.50;79.60;;;;;;5034098;28;20451;-70
2022/01/20 23:00:45;;;;;;;80.00;51.38;;;2.50;79.60;;;;;;5033852;28;20021;-69
2022/01/20 23:03:11;;;;;;;79.10;53.92;;;2.40;79.40;;;;;;5034214;28;20053;-71
2022/01/20 23:05:38;;;;;;;80.50;54.80;;;2.40;79.40;;;;;;5032585;28;20030;-70
2022/01/20 23:08:04;;;;;;;84.90;52.85;;;2.30;79.40;;;;;;5033800;28;20410;-71
2022/01/20 23:10:30;;;;;;;74.32;52.67;;;2.20;79.50;;;;;;5034101;28;20051;-69
2022/01/20 23:12:57;;;;;;;68.40;48.97;;;2.20;79.50;;;;;;5033751;28;20029;-69
2022/01/20 23:15:29;;;;;;;79.00;53.97;;;2.20;79.50;;;;;;5033712;28;20025;-70
2022/01/20 23:18:05;;;;;;;80.28;57.83;;;2.10;79.50;;;;;;5034029;28;20018;-70
2022/01/20 23:20:53;;;;;;;71.32;48.72;;;2.10;79.70;;;;;;5032741;28;20049;-69
2022/01/20 23:23:33;;;;;;;72.72;52.08;;;2.10;79.80;;;;;;5033670;28;20029;-71
2022/01/20 23:26:03;;;;;;;63.78;49.50;;;2.00;79.80;;;;;;5033186;28;20021;-70
2022/01/20 23:28:36;;;;;;;79.65;56.30;;;2.00;79.80;;;;;;5033659;28;20128;-69
2022/01/20 23:31:03;;;;;;;78.47;55.22;;;2.10;80.00;;;;;;5033979;28;20032;-70
2022/01/20 23:33:29;;;;;;;76.90;52.13;;;2.00;80.00;;;;;;5032849;28;20047;-70
2022/01/20 23:35:55;;;;;;;86.03;59.58;;;2.00;80.20;;;;;;5033536;28;20163;-69
2022/01/20 23:38:21;;;;;;;91.50;54.88;;;2.00;80.30;;;;;;5033550;28;20484;-70
2022/01/20 23:41:00;;;;;;;68.15;50.97;;;2.10;80.40;;;;;;5032206;28;20017;-70
2022/01/20 23:48:42;;;;;;;90.22;57.58;;;2.00;80.40;;;;;;5034811;28;20421;-69
2022/01/20 23:51:08;;;;;;;90.13;56.38;;;2.00;80.30;;;;;;5037146;28;20017;-69
2022/01/20 23:53:34;;;;;;;70.18;51.30;;;2.00;80.40;;;;;;5037432;28;20029;-69
2022/01/20 23:56:03;;;;;;;85.13;56.70;;;2.00;80.40;;;;;;5037121;28;20022;-69
2022/01/20 23:58:29;;;;;;;83.57;54.80;;;2.00;80.40;;;;;;5037379;28;20017;-69
